createdAt,value
2022-07-26T00:00:18.859Z,13.70
2022-07-26T00:04:00.695Z,13.70
2022-07-26T00:07:42.527Z,13.70
2022-07-26T00:11:25.646Z,13.60
2022-07-26T00:15:08.642Z,13.50
2022-07-26T00:18:50.530Z,13.40
2022-07-26T00:22:35.269Z,13.40
2022-07-26T00:26:17.104Z,13.40
2022-07-26T00:29:58.901Z,13.40
2022-07-26T00:33:40.702Z,13.30
2022-07-26T00:37:22.501Z,13.30
2022-07-26T00:41:05.209Z,13.30
2022-07-26T00:44:47.040Z,13.50
2022-07-26T00:48:28.934Z,13.60
2022-07-26T00:52:11.057Z,13.70
2022-07-26T00:55:52.875Z,13.80
2022-07-26T00:59:34.755Z,14.00
2022-07-26T01:03:16.540Z,14.10
2022-07-26T01:06:58.352Z,14.30
2022-07-26T01:10:40.244Z,14.40
2022-07-26T01:14:22.882Z,14.50
2022-07-26T01:18:04.703Z,14.60
2022-07-26T01:21:46.526Z,14.70
2022-07-26T01:25:43.446Z,14.80
2022-07-26T01:29:35.398Z,14.90
2022-07-26T01:33:18.217Z,14.90
2022-07-26T01:37:00.101Z,15.00
2022-07-26T01:40:41.902Z,15.10
2022-07-26T01:44:23.907Z,15.10
2022-07-26T01:48:06.020Z,15.20
2022-07-26T01:51:47.822Z,15.30
2022-07-26T01:55:29.691Z,15.30
2022-07-26T01:59:11.472Z,15.30
2022-07-26T02:02:53.454Z,15.40
2022-07-26T02:06:35.362Z,15.50
2022-07-26T02:10:18.952Z,15.50
2022-07-26T02:14:00.707Z,15.50
2022-07-26T02:17:43.080Z,15.50
2022-07-26T02:21:24.865Z,15.60
2022-07-26T02:25:07.085Z,15.60
2022-07-26T02:28:48.889Z,15.60
2022-07-26T02:32:30.710Z,15.60
2022-07-26T02:36:12.538Z,15.60
2022-07-26T02:39:54.460Z,15.60
2022-07-26T02:43:36.243Z,15.60
2022-07-26T02:47:18.074Z,15.60
2022-07-26T02:51:00.019Z,15.60
2022-07-26T02:54:41.901Z,15.60
2022-07-26T02:58:25.094Z,15.60
2022-07-26T03:02:07.427Z,15.60
2022-07-26T03:05:49.326Z,15.60
2022-07-26T03:09:31.231Z,15.60
2022-07-26T03:13:13.017Z,15.60
2022-07-26T03:16:54.879Z,15.60
2022-07-26T03:20:36.798Z,15.60
2022-07-26T03:24:18.600Z,15.60
2022-07-26T03:28:00.405Z,15.60
2022-07-26T03:31:42.253Z,15.50
2022-07-26T03:35:24.108Z,15.50
2022-07-26T03:39:05.964Z,15.40
2022-07-26T03:42:48.076Z,15.30
2022-07-26T03:46:30.287Z,15.10
2022-07-26T03:50:13.664Z,15.00
2022-07-26T03:53:55.538Z,14.90
2022-07-26T03:57:38.500Z,14.80
2022-07-26T04:01:20.357Z,14.60
2022-07-26T04:05:02.142Z,14.50
2022-07-26T04:08:44.335Z,14.30
2022-07-26T04:12:26.116Z,14.20
2022-07-26T04:16:08.150Z,14.10
2022-07-26T04:19:49.960Z,14.00
2022-07-26T04:23:31.759Z,13.90
2022-07-26T04:27:13.572Z,13.80
2022-07-26T04:30:58.838Z,13.80
2022-07-26T04:34:40.634Z,13.80
2022-07-26T04:38:22.985Z,13.70
2022-07-26T04:42:04.878Z,13.80
2022-07-26T04:45:46.903Z,13.80
2022-07-26T04:49:28.739Z,13.80
2022-07-26T04:53:13.347Z,13.90
2022-07-26T04:56:55.164Z,14.00
2022-07-26T05:00:56.511Z,14.20
2022-07-26T05:04:39.053Z,14.30
2022-07-26T05:08:21.012Z,14.40
2022-07-26T05:12:02.876Z,14.50
2022-07-26T05:15:44.699Z,14.60
2022-07-26T05:19:26.735Z,14.70
2022-07-26T05:23:08.575Z,14.70
2022-07-26T05:26:52.320Z,14.80
2022-07-26T05:30:37.382Z,14.90
2022-07-26T05:34:19.192Z,15.00
2022-07-26T05:38:00.998Z,15.10
2022-07-26T05:41:42.831Z,15.20
2022-07-26T05:45:24.643Z,15.30
2022-07-26T05:49:06.548Z,15.30
2022-07-26T05:52:48.497Z,15.50
2022-07-26T05:56:30.294Z,15.50
2022-07-26T06:00:12.447Z,15.60
2022-07-26T06:03:54.283Z,15.70
2022-07-26T06:07:36.069Z,15.80
2022-07-26T06:11:17.920Z,15.90
2022-07-26T06:14:59.689Z,16.10
2022-07-26T06:18:41.473Z,16.20
2022-07-26T06:22:23.225Z,16.30
2022-07-26T06:26:05.345Z,16.40
2022-07-26T06:29:49.122Z,16.50
2022-07-26T06:33:30.974Z,16.60
2022-07-26T06:37:12.762Z,16.60
2022-07-26T06:40:54.628Z,16.70
2022-07-26T06:44:36.510Z,16.80
2022-07-26T06:48:18.290Z,17.00
2022-07-26T06:52:00.114Z,17.20
2022-07-26T06:55:41.955Z,17.30
2022-07-26T06:59:24.472Z,17.50
2022-07-26T07:03:06.302Z,17.70
2022-07-26T07:06:48.260Z,17.80
2022-07-26T07:10:31.510Z,17.80
2022-07-26T07:14:13.309Z,17.90
2022-07-26T07:17:55.126Z,18.00
2022-07-26T07:21:36.947Z,18.00
2022-07-26T07:25:21.081Z,18.10
2022-07-26T07:29:04.930Z,18.30
2022-07-26T07:32:46.828Z,18.60
2022-07-26T07:36:29.114Z,18.70
2022-07-26T07:40:11.414Z,18.90
2022-07-26T07:43:53.198Z,19.20
2022-07-26T07:47:35.263Z,19.40
2022-07-26T07:51:17.110Z,19.80
2022-07-26T07:55:21.854Z,20.50
2022-07-26T07:59:01.313Z,21.40
2022-07-26T08:02:43.157Z,21.80
2022-07-26T08:06:25.024Z,22.00
2022-07-26T08:10:07.231Z,22.40
2022-07-26T08:13:49.038Z,22.70
2022-07-26T08:17:30.923Z,22.80
2022-07-26T08:21:15.354Z,23.00
2022-07-26T08:24:57.470Z,23.30
2022-07-26T08:28:48.216Z,23.40
2022-07-26T08:32:30.531Z,23.60
2022-07-26T08:36:17.657Z,23.70
2022-07-26T08:39:59.417Z,23.30
2022-07-26T08:43:51.356Z,23.40
2022-07-26T08:47:37.997Z,23.60
2022-07-26T08:51:25.338Z,23.60
2022-07-26T08:55:07.613Z,23.30
2022-07-26T08:58:49.566Z,23.10
2022-07-26T09:02:40.054Z,22.80
2022-07-26T09:06:28.093Z,22.80
2022-07-26T09:10:11.728Z,22.90
2022-07-26T09:14:01.146Z,23.20
2022-07-26T09:17:47.202Z,23.50
2022-07-26T09:21:33.558Z,23.50
2022-07-26T09:25:22.341Z,23.30
2022-07-26T09:29:13.724Z,23.20
2022-07-26T09:32:58.932Z,23.50
2022-07-26T09:36:59.058Z,24.30
2022-07-26T09:40:41.234Z,24.90
2022-07-26T09:44:25.541Z,25.10
2022-07-26T09:48:07.709Z,25.10
2022-07-26T09:51:50.778Z,24.60
2022-07-26T09:55:42.436Z,24.30
2022-07-26T09:59:26.500Z,24.20
2022-07-26T10:03:08.427Z,24.00
2022-07-26T10:06:50.459Z,23.80
2022-07-26T10:10:34.274Z,23.70
2022-07-26T10:14:49.346Z,23.70
2022-07-26T10:18:38.166Z,23.90
2022-07-26T10:22:24.237Z,24.40
2022-07-26T10:26:07.772Z,24.90
2022-07-26T10:29:51.630Z,25.20
2022-07-26T10:33:33.591Z,25.40
2022-07-26T10:37:23.296Z,25.70
2022-07-26T10:41:07.854Z,26.00
2022-07-26T10:44:50.309Z,26.50
2022-07-26T10:48:32.196Z,27.80
2022-07-26T10:52:26.277Z,29.00
2022-07-26T10:56:08.122Z,29.20
2022-07-26T10:59:57.365Z,29.10
2022-07-26T11:03:40.280Z,28.60
2022-07-26T11:07:22.040Z,28.40
2022-07-26T11:11:03.872Z,28.90
2022-07-26T11:14:48.427Z,29.40
2022-07-26T11:18:38.423Z,30.10
2022-07-26T11:22:20.313Z,31.30
2022-07-26T11:26:02.613Z,32.40
2022-07-26T11:29:46.691Z,33.50
2022-07-26T11:33:37.889Z,33.80
2022-07-26T11:37:19.670Z,33.10
2022-07-26T11:41:01.448Z,32.40
2022-07-26T11:44:43.946Z,31.80
2022-07-26T11:48:25.730Z,31.40
2022-07-26T11:52:07.607Z,31.00
2022-07-26T11:55:49.418Z,30.60
2022-07-26T11:59:32.758Z,30.30
2022-07-26T12:03:14.581Z,30.00
2022-07-26T12:06:57.084Z,29.20
2022-07-26T12:10:38.892Z,28.70
2022-07-26T12:14:31.415Z,28.20
2022-07-26T12:18:22.035Z,28.00
2022-07-26T12:22:13.624Z,28.20
2022-07-26T12:25:55.429Z,28.10
2022-07-26T12:29:38.768Z,27.50
2022-07-26T12:33:20.727Z,27.20
2022-07-26T12:37:10.329Z,27.00
2022-07-26T12:40:52.516Z,26.80
2022-07-26T12:44:34.300Z,26.50
2022-07-26T12:48:16.089Z,26.00
2022-07-26T12:51:57.886Z,25.60
2022-07-26T12:55:41.144Z,25.40
2022-07-26T12:59:22.990Z,25.40
2022-07-26T13:03:04.759Z,25.30
2022-07-26T13:06:46.625Z,25.30
2022-07-26T13:10:36.250Z,25.40
2022-07-26T13:14:18.402Z,25.30
2022-07-26T13:18:00.174Z,25.40
2022-07-26T13:21:42.152Z,25.60
2022-07-26T13:25:23.973Z,25.70
2022-07-26T13:29:07.848Z,25.60
2022-07-26T13:32:49.702Z,25.80
2022-07-26T13:36:31.634Z,26.00
2022-07-26T13:40:13.528Z,26.30
2022-07-26T13:43:55.791Z,26.50
2022-07-26T13:47:37.622Z,26.50
2022-07-26T13:51:19.404Z,26.60
2022-07-26T13:55:01.330Z,26.80
2022-07-26T13:58:43.214Z,27.00
2022-07-26T14:02:25.823Z,27.50
2022-07-26T14:06:07.715Z,28.30
2022-07-26T14:09:49.520Z,28.90
2022-07-26T14:13:31.536Z,29.10
2022-07-26T14:17:13.304Z,29.00
2022-07-26T14:20:55.229Z,29.20
2022-07-26T14:24:37.006Z,29.50
2022-07-26T14:28:18.822Z,29.60
2022-07-26T14:32:00.684Z,29.80
2022-07-26T14:35:43.958Z,30.00
2022-07-26T14:39:28.983Z,30.20
2022-07-26T14:43:10.755Z,30.70
2022-07-26T14:46:53.214Z,31.90
2022-07-26T14:50:53.079Z,33.10
2022-07-26T14:54:36.782Z,33.30
2022-07-26T14:58:19.010Z,32.70
2022-07-26T15:02:05.500Z,32.10
2022-07-26T15:05:47.839Z,31.70
2022-07-26T15:09:29.632Z,31.40
2022-07-26T15:13:12.841Z,31.50
2022-07-26T15:16:54.702Z,31.60
2022-07-26T15:20:39.496Z,30.70
2022-07-26T15:24:23.134Z,29.80
2022-07-26T15:28:06.221Z,29.30
2022-07-26T15:31:49.234Z,29.10
2022-07-26T15:35:31.186Z,29.00
2022-07-26T15:39:17.557Z,28.80
2022-07-26T15:43:00.520Z,28.50
2022-07-26T15:46:42.370Z,28.00
2022-07-26T15:50:25.414Z,27.50
2022-07-26T15:54:11.574Z,26.90
2022-07-26T15:57:53.852Z,26.60
2022-07-26T16:01:36.342Z,26.50
2022-07-26T16:05:18.296Z,27.50
2022-07-26T16:09:19.002Z,28.60
2022-07-26T16:13:01.514Z,29.00
2022-07-26T16:16:43.687Z,28.60
2022-07-26T16:20:25.562Z,27.80
2022-07-26T16:24:08.091Z,27.00
2022-07-26T16:27:50.532Z,26.50
2022-07-26T16:31:32.537Z,26.00
2022-07-26T16:35:14.438Z,26.60
2022-07-26T16:38:56.244Z,28.30
2022-07-26T16:42:38.103Z,30.40
2022-07-26T16:46:19.997Z,32.60
2022-07-26T16:50:02.084Z,33.80
2022-07-26T16:53:45.276Z,34.40
2022-07-26T16:57:27.212Z,34.30
2022-07-26T17:01:09.188Z,33.90
2022-07-26T17:04:51.135Z,33.80
2022-07-26T17:08:33.071Z,32.50
2022-07-26T17:12:14.858Z,31.20
2022-07-26T17:15:56.799Z,29.80
2022-07-26T17:19:38.766Z,29.40
2022-07-26T17:23:20.723Z,30.00
2022-07-26T17:27:02.548Z,30.70
2022-07-26T17:30:44.394Z,29.90
2022-07-26T17:34:26.279Z,28.60
2022-07-26T17:38:08.056Z,28.50
2022-07-26T17:41:49.880Z,29.80
2022-07-26T17:45:31.761Z,30.90
2022-07-26T17:49:13.985Z,31.00
2022-07-26T17:52:56.353Z,30.90
2022-07-26T17:56:38.702Z,30.80
2022-07-26T18:00:21.412Z,30.60
2022-07-26T18:04:03.245Z,30.40
2022-07-26T18:07:45.037Z,30.50
2022-07-26T18:11:26.879Z,30.90
2022-07-26T18:15:09.173Z,31.40
2022-07-26T18:18:51.147Z,31.30
2022-07-26T18:22:32.954Z,30.60
2022-07-26T18:26:14.835Z,29.60
2022-07-26T18:29:56.997Z,28.30
2022-07-26T18:33:38.815Z,26.80
2022-07-26T18:37:20.882Z,25.60
2022-07-26T18:41:02.643Z,24.70
2022-07-26T18:44:44.754Z,23.90
2022-07-26T18:48:26.605Z,23.30
2022-07-26T18:52:09.941Z,22.90
2022-07-26T18:55:52.329Z,22.60
2022-07-26T18:59:34.090Z,22.10
2022-07-26T19:03:16.667Z,21.70
2022-07-26T19:06:58.463Z,21.40
2022-07-26T19:10:40.254Z,21.10
2022-07-26T19:14:22.097Z,20.90
2022-07-26T19:18:14.636Z,20.70
2022-07-26T19:21:56.429Z,20.50
2022-07-26T19:25:38.969Z,20.30
2022-07-26T19:29:20.766Z,20.10
2022-07-26T19:33:02.630Z,19.90
2022-07-26T19:36:44.490Z,19.80
2022-07-26T19:40:26.372Z,19.50
2022-07-26T19:44:08.137Z,19.40
2022-07-26T19:47:49.916Z,19.20
2022-07-26T19:51:32.003Z,19.00
2022-07-26T19:55:13.818Z,18.80
2022-07-26T19:58:56.479Z,18.60
2022-07-26T20:02:40.876Z,18.40
2022-07-26T20:06:23.673Z,18.30
2022-07-26T20:10:06.144Z,18.10
2022-07-26T20:13:48.275Z,17.90
2022-07-26T20:17:35.385Z,17.80
2022-07-26T20:21:17.202Z,17.60
2022-07-26T20:24:59.022Z,17.40
2022-07-26T20:28:41.777Z,17.20
2022-07-26T20:32:23.627Z,17.10
2022-07-26T20:36:05.579Z,16.90
2022-07-26T20:39:47.350Z,16.80
2022-07-26T20:43:30.070Z,16.60
2022-07-26T20:47:14.012Z,16.50
2022-07-26T20:50:56.038Z,16.40
2022-07-26T20:54:37.885Z,16.30
2022-07-26T20:58:20.057Z,16.10
2022-07-26T21:02:02.153Z,16.00
2022-07-26T21:05:44.641Z,15.80
2022-07-26T21:09:27.314Z,15.70
2022-07-26T21:13:09.890Z,15.50
2022-07-26T21:16:51.835Z,15.40
2022-07-26T21:20:33.743Z,15.30
2022-07-26T21:24:15.561Z,15.20
2022-07-26T21:27:57.358Z,15.20
2022-07-26T21:31:39.180Z,15.10
2022-07-26T21:35:20.979Z,14.90
2022-07-26T21:39:03.006Z,14.80
2022-07-26T21:42:44.811Z,14.70
2022-07-26T21:46:26.729Z,14.50
2022-07-26T21:50:09.125Z,14.40
2022-07-26T21:53:50.908Z,14.30
2022-07-26T21:57:32.678Z,14.20
2022-07-26T22:01:14.865Z,14.10
2022-07-26T22:04:57.568Z,14.00
2022-07-26T22:08:39.541Z,13.80
2022-07-26T22:12:21.443Z,13.80
2022-07-26T22:16:03.451Z,13.70
2022-07-26T22:19:45.253Z,13.60
2022-07-26T22:23:30.245Z,13.60
2022-07-26T22:27:12.142Z,13.50
2022-07-26T22:30:54.774Z,13.40
2022-07-26T22:34:36.587Z,13.30
2022-07-26T22:38:18.736Z,13.30
2022-07-26T22:42:14.989Z,13.20
2022-07-26T22:45:57.805Z,13.10
2022-07-26T22:49:39.691Z,13.00
2022-07-26T22:53:21.774Z,12.90
2022-07-26T22:57:03.750Z,12.80
2022-07-26T23:00:45.764Z,12.70
2022-07-26T23:04:27.680Z,12.60
2022-07-26T23:08:36.238Z,12.50
2022-07-26T23:12:11.569Z,12.40
2022-07-26T23:15:58.108Z,12.40
2022-07-26T23:19:42.279Z,12.20
2022-07-26T23:23:27.915Z,12.20
2022-07-26T23:27:14.352Z,12.10
2022-07-26T23:31:00.007Z,12.00
2022-07-26T23:34:43.972Z,11.90
2022-07-26T23:38:25.782Z,11.90
2022-07-26T23:42:07.724Z,11.80
2022-07-26T23:45:49.519Z,11.70
2022-07-26T23:49:31.434Z,11.60
2022-07-26T23:53:13.286Z,11.60
2022-07-26T23:56:55.068Z,11.50
